METAR Data
IDs: Format: Raw Decoded Include TAF

Data at: 0240 UTC 25 Jan 2020

PAMD 250151Z AUTO 10020KT 9SM -SN CLR M02/M05 A2913 RMK AO2 SNE0058B46 SLP851 P0000 T10221050 FZRANO
PAMD 250051Z AUTO 09014KT 9SM -SN FEW033 BKN044 M03/M06 A2913 RMK AO2 SNB28 SLP851 P0000 T10281056 FZRANO
PAMD 250042Z AUTO 10016KT 3SM -SN BR FEW042 M03/M05 A2913 RMK AO2 SNB28 P0000 FZRANO
PAMD 250038Z AUTO 10014G24KT 2 1/2SM -SN CLR M02/M05 A2912 RMK AO2 SNB28 P0000 FZRANO
PAMD 242359Z AUTO 10018KT 10SM SCT029 OVC035 M01/M05 A2911 RMK AO2 FZRANO
PAMD 242351Z AUTO 10017KT 10SM BKN029 OVC033 M01/M04 A2911 RMK AO2 UPB40E43SNB2257E40 SLP846 P0000 60000 T10111044 11011 21022 56003 FZRANO
PAMD 242251Z AUTO 06013KT 10SM FEW048 M02/M08 A2911 RMK AO2 SLP847 T10171078 FZRANO
PAMD 242151Z AUTO 07012KT 10SM OVC044 M01/M08 A2912 RMK AO2 SNE2054 SLP848 P0000 T10111078 FZRANO
PAMD 242051Z AUTO 08011G20KT 9SM -SN FEW026 OVC036 M02/M06 A2912 RMK AO2 UPB1952E28SNE1952B09E18B28 SLP849 P0000 60000 T10171061 53002 FZRANO
PAMD 242041Z AUTO 08016G20KT 4SM -SN FEW021 OVC034 M02/M06 A2912 RMK AO2 UPB1952E28SNE1952B09E18B28 P0000 FZRANO
PAMD 242039Z AUTO 08012KT 2SM -SN FEW021 OVC034 M02/M06 A2912 RMK AO2 VIS 3/4V5 UPB1952E28SNE1952B09E18B28 P0000 FZRANO
PAMD 242031Z AUTO 10011KT 1 3/4SM -SN FEW021 OVC034 M02/M05 A2912 RMK AO2 VIS 3/4V4 UPB1952E28SNE1952B09E18B28 P0000 FZRANO
PAMD 242029Z AUTO 07011KT 2SM -SN FEW021 OVC034 M02/M05 A2912 RMK AO2 VIS 1 1/4V5 UPB1952E28SNE1952B09E18B28 P0000 FZRANO
PAMD 241951Z AUTO 10014KT 9SM -SN BKN034 OVC049 M02/M06 A2912 RMK AO2 UPE1858SNB42 SLP849 P0000 T10171056 FZRANO
PAMD 241851Z AUTO 11021KT 9SM UP SCT034 OVC047 M02/M06 A2911 RMK AO2 UPB47SNB26E47 SLP846 P0000 T10171056 FZRANO
PAMD 241751Z AUTO 09016KT 10SM FEW034 M02/M08 A2912 RMK AO2 SLP848 60000 T10221078 11017 21028 56004 FZRANO
PAMD 241651Z AUTO 09015KT 10SM OVC040 M02/M08 A2912 RMK AO2 SLP848 T10171083 FZRANO
PAMD 241551Z AUTO 10014KT 10SM FEW041 M02/M08 A2912 RMK AO2 SLP850 T10171083 FZRANO
PAMD 241457Z AUTO 10015KT 10SM FEW022 BKN030 M02/M08 A2913 RMK AO2 FZRANO
PAMD 241451Z AUTO 12015G20KT 10SM FEW022 BKN029 M02/M07 A2913 RMK AO2 UPB1358E14SNE1358B14E27 SLP852 P0000 60000 T10221072 57007 FZRANO
PAMD 241445Z AUTO 12017G20KT 10SM BKN023 OVC030 M02/M07 A2913 RMK AO2 UPB1358E14SNE1358B14E27 P0000 FZRANO
PAMD 241351Z AUTO 08021KT 10SM -SN FEW038 SCT049 M03/M05 A2914 RMK AO2 PK WND 11030/1309 SNE02B49 SLP855 P0000 T10281050 FZRANO
PAMD 241324Z AUTO 10022KT 10SM FEW011 BKN038 OVC049 M03/M05 A2914 RMK AO2 PK WND 11030/1309 SNE02 P0000 FZRANO
PAMD 241251Z AUTO 12015KT 10SM -SN SCT009 BKN018 OVC026 M02/M04 A2914 RMK AO2 UPB34E36SNE34B51 SLP857 P0000 T10221044 FZRANO
PAMD 241246Z AUTO 11016KT 10SM FEW009 SCT018 OVC026 M02/M04 A2914 RMK AO2 UPB34E36SNE34 P0000 FZRANO
PAMD 241151Z AUTO 09020G26KT 6SM -SN BR SCT024 OVC028 M02/M04 A2915 RMK AO2 PK WND 10026/1146 WSHFT 1134 UPB34E46SNE34B46 SLP859 P0000 60001 70001 T10221039 11022 21033 58002 FZRANO
PAMD 241149Z AUTO 09020G26KT 6SM -SN BR OVC028 M02/M04 A2915 RMK AO2 PK WND 10026/1146 WSHFT 1134 UPB34E46SNE34B46 P0000 FZRANO
PAMD 241104Z AUTO 13018KT 7SM -SN SCT006 OVC018 M03/M04 A2915 RMK AO2 P0000 FZRANO
PAMD 241057Z AUTO 13018KT 4SM -SN BR BKN006 OVC020 M03/M04 A2916 RMK AO2 CIG 003V010 P0000 FZRANO
PAMD 241055Z AUTO 13016KT 2 1/2SM -SN BR BKN006 OVC020 M03/M04 A2916 RMK AO2 CIG 003V008 P0000 FZRANO
PAMD 241051Z AUTO 12015KT 1 1/4SM -SN BR OVC006 M03/M04 A2916 RMK AO2 UPB06E08SNB0956E06B08 CIG 003V008 SLP863 P0000 T10331044 FZRANO
PAMD 241049Z AUTO 12014KT 1SM -SN BR OVC006 M03/M04 A2916 RMK AO2 UPB06E08SNB0956E06B08 CIG 003V008 P0000 FZRANO
PAMD 241038Z AUTO 14017KT 3/4SM -SN BR BKN008 OVC015 M03/M04 A2917 RMK AO2 UPB06E08SNB0956E06B08 CIG 005V010 P0000 FZRANO
PAMD 241034Z AUTO 14020KT 1/2SM SN FZFG BKN008 OVC015 M03/M04 A2916 RMK AO2 UPB06E08SNB0956E06B08 CIG 006V010 P0000 FZRANO
PAMD 241028Z AUTO 15019KT 3/4SM -SN BR BKN008 BKN015 M03/M04 A2916 RMK AO2 UPB06E08SNB0956E06B08 CIG 006V010 P0000 FZRANO
PAMD 241019Z AUTO 15021KT 1/2SM SN FZFG FEW008 BKN015 M03/M04 A2916 RMK AO2 UPB06E08SNB0956E06B08 P0000 FZRANO
PAMD 241016Z AUTO 15019KT 3/4SM -SN BR BKN015 BKN023 M03/M04 A2916 RMK AO2 UPB06E08SNB0956E06B08 P0000 FZRANO
PAMD 241014Z AUTO 14019KT 1 1/2SM -SN BR SCT017 M03/M05 A2916 RMK AO2 UPB06E08SNB0956E06B08 P0000 FZRANO
PAMD 241012Z AUTO 16014KT 2SM -SN BR SCT017 M03/M05 A2917 RMK AO2 VIS 1 1/4V5 UPB06E08SNB0956E06B08 P0000 FZRANO
PAMD 241000Z AUTO 15017G25KT 9SM -SN SCT017 M02/M04 A2916 RMK AO2 SNB0956 P0000 FZRANO
PAMD 240951Z AUTO 15019KT 10SM FEW010 BKN017 OVC024 M02/M04 A2916 RMK AO2 PK WND 14028/0917 UPB32E34SNE32 SLP863 P0000 T10221044 FZRANO
PAMD 240945Z AUTO 14020KT 10SM SCT010 OVC017 M03/M04 A2916 RMK AO2 PK WND 14028/0917 UPB32E34SNE32 P0000 FZRANO
PAMD 240906Z AUTO 13022KT 4SM -SN BR BKN010 OVC015 M02/M03 A2915 RMK AO2 PK WND 14026/0906 CIG 005V013 P0000 FZRANO
PAMD 240904Z AUTO 13021KT 2 1/2SM -SN BR BKN010 OVC015 M02/M04 A2915 RMK AO2 PK WND 12026/0903 VIS 1V5 CIG 005V012 P0000 FZRANO
PAMD 240851Z AUTO 13020KT 1 1/4SM -SN BR OVC010 M03/M04 A2916 RMK AO2 PK WND 14030/0838 UPB02E04SNE02B04 CIG 007V013 SLP862 P0000 60001 T10281039 56011 FZRANO
PAMD 240843Z AUTO 13022G30KT 1SM -SN BR BKN010 OVC015 M03/M04 A2916 RMK AO2 PK WND 14030/0838 UPB02E04SNE02B04 CIG 008V012 P0000 FZRANO
PAMD 240838Z AUTO 14024G30KT 3/4SM -SN BR BKN010 OVC015 M03/M04 A2915 RMK AO2 PK WND 14030/0838 UPB02E04SNE02B04 CIG 009V012 P0000 FZRANO
PAMD 240836Z AUTO 14020G25KT 1SM -SN BR OVC013 M02/M04 A2916 RMK AO2 UPB02E04SNE02B04 P0000 FZRANO
PAMD 240832Z AUTO 16022G25KT 1 1/2SM -SN BR BKN013 OVC021 M02/M03 A2916 RMK AO2 UPB02E04SNE02B04 P0000 FZRANO
PAMD 240826Z AUTO 15019G24KT 2 1/2SM -SN BR BKN013 OVC021 M03/M04 A2916 RMK AO2 UPB02E04SNE02B04 P0000 FZRANO
PAMD 240822Z AUTO 13015G19KT 1 3/4SM -SN BR BKN013 OVC021 M03/M04 A2916 RMK AO2 VIS 1V2 1/2 UPB02E04SNE02B04 P0000 FZRANO
PAMD 240806Z AUTO 14018KT 1 1/2SM -SN BR OVC019 M03/M04 A2916 RMK AO2 UPB02E04SNE02B04 P0000 FZRANO
PAMD 240804Z AUTO 14018KT 2SM -SN BR OVC019 M03/M04 A2916 RMK AO2 UPB02E04SNE02B04 P0000 FZRANO
PAMD 240751Z AUTO 17011G19KT 9SM -SN FEW007 OVC019 M02/M03 A2916 RMK AO2 UPB0656E0659SNE0656B0659 SLP863 P0000 T10221033 400061033 FZRANO
PAMD 240747Z AUTO 12010G19KT 9SM -SN SCT007 SCT011 OVC019 M02/M03 A2916 RMK AO2 UPB0656E0659SNE0656B0659 P0000 FZRANO
PAMD 240743Z AUTO 12014G24KT 9SM -SN SCT007 BKN011 OVC019 M02/M03 A2916 RMK AO2 UPB0656E0659SNE0656B0659 CIG 009V014 P0000 FZRANO
PAMD 240736Z AUTO 12018KT 4SM -SN BR BKN007 OVC019 M02/M03 A2916 RMK AO2 UPB0656E0659SNE0656B0659 CIG 003V011 P0000 FZRANO
PAMD 240731Z AUTO 11017KT 2SM -SN BR OVC007 M03/M03 A2916 RMK AO2 VIS 1 1/2V5 UPB0656E0659SNE0656B0659 CIG 003V010 P0000 FZRANO
PAMD 240723Z AUTO 11013G21KT 1 1/4SM -SN BR OVC009 M03/M04 A2917 RMK AO2 UPB0656E0659SNE0656B0659 CIG 003V011 P0000 FZRANO
PAMD 240720Z AUTO 11015KT 3/4SM -SN BR FEW005 OVC009 M03/M04 A2917 RMK AO2 UPB0656E0659SNE0656B0659 P0000 FZRANO
PAMD 240709Z AUTO 10020G24KT 1/2SM SN FZFG BKN009 BKN019 M03/M04 A2918 RMK AO2 UPB0656E0659SNE0656B0659 P0000 FZRANO
PAMD 240706Z AUTO 10019G25KT 1/2SM SN FZFG BKN011 BKN019 M03/M04 A2917 RMK AO2 UPB0656E0659SNE0656B0659 CIG 008V013 P0000 FZRANO
PAMD 240703Z AUTO 11020G25KT 3/4SM -SN BR BKN011 BKN019 M03/M04 A2917 RMK AO2 UPB0656E0659SNE0656B0659 CIG 008V013 P0000 FZRANO
PAMD 240701Z AUTO 10019G25KT 1 1/4SM -SN BR SCT011 BKN019 M03/M04 A2917 RMK AO2 UPB0656E0659SNE0656B0659 P0000 FZRANO
PAMD 240659Z AUTO 10021G25KT 2SM -SN BR SCT011 BKN019 M03/M04 A2917 RMK AO2 UPB56E59SNE56B59 P0000 FZRANO
PAMD 240656Z AUTO 10018KT 4SM UP BR FEW011 BKN019 M03/M04 A2918 RMK AO2 UPB56SNE56 P0000 FZRANO
PAMD 240651Z AUTO 10017KT 8SM -SN SCT019 M03/M05 A2918 RMK AO2 UPB03E22SNE03B22 SLP870 P0001 T10281050 FZRANO
PAMD 240632Z AUTO 12015KT 9SM -SN SCT016 M03/M05 A2918 RMK AO2 UPB03E22SNE03B22 P0001 FZRANO
PAMD 240551Z AUTO 14017KT 9SM -SN BKN021 OVC028 M03/M06 A2919 RMK AO2 UPB07E12SNE07B12 SLP872 P0000 60000 T10331056 11022 21033 57011 FZRANO
PAMD 240516Z AUTO 13020KT 5SM -SN FEW018 BKN027 BKN042 M03/M06 A2919 RMK AO2 UPB07E12SNE07B12 P0000 FZRANO
PAMD 240451Z AUTO 14016KT 9SM -SN FEW017 BKN042 OVC055 M03/M06 A2920 RMK AO2 UPB33E39SNB06E33B39 SLP875 P0000 T10281061 FZRANO
PAMD 240351Z AUTO 17011KT 10SM SCT036 OVC060 M03/M09 A2921 RMK AO2 SLP881 T10281089 FZRANO
PAMD 240251Z AUTO 17014KT 10SM OVC044 M03/M09 A2922 RMK AO2 SLP884 60000 T10281089 58010 FZRANO
PAMD 240151Z AUTO 19007KT 10SM FEW025 BKN048 OVC060 M03/M08 A2923 RMK AO2 SNE23 SLP887 P0000 T10331078 FZRANO
PAMD 240144Z AUTO 20006KT 10SM SCT025 BKN035 OVC048 M03/M08 A2923 RMK AO2 SNE23 P0000 FZRANO
PAMD 240142Z AUTO 19008KT 10SM BKN027 BKN035 OVC048 M03/M08 A2923 RMK AO2 SNE23 P0000 FZRANO
PAMD 240139Z AUTO 21008KT 10SM SCT025 BKN030 OVC035 M03/M08 A2923 RMK AO2 SNE23 P0000 FZRANO
PAMD 240120Z AUTO 20013KT 9SM -SN BKN028 OVC036 M03/M08 A2924 RMK AO2 P0000 FZRANO
PAMD 240051Z AUTO 21006KT 4SM -SN BKN040 OVC055 M03/M07 A2924 RMK AO2 SNB11E25B42 SLP890 P0000 T10281072 FZRANO
PAMD 232351Z AUTO 20010KT 10SM OVC046 M02/M09 A2925 RMK AO2 SLP893 60000 T10221094 11011 21028 56005 FZRANO
PAMD 232251Z AUTO 19006KT 10SM CLR M02/M11 A2925 RMK AO2 SLP894 T10221106 FZRANO
PAMD 232151Z AUTO 24011KT 10SM CLR M02/M09 A2926 RMK AO2 SLP896 T10221094 FZRANO
PAMD 232051Z AUTO 22012KT 10SM CLR M02/M09 A2927 RMK AO2 SLP899 60000 T10221089 58003 FZRANO
PAMD 231951Z AUTO 23011G16KT 10SM CLR M02/M08 A2927 RMK AO2 SNE10 SLP900 P0000 T10221078 FZRANO
PAMD 231903Z AUTO 25013G19KT 9SM -SN BKN030 OVC035 M02/M07 A2927 RMK AO2 P0000 FZRANO
PAMD 231851Z AUTO 25013KT 9SM -SN BKN028 OVC035 M02/M06 A2927 RMK AO2 SNB17 SLP901 P0000 T10171061 FZRANO
PAMD 231832Z AUTO 24014G19KT 9SM -SN BKN028 OVC037 M02/M06 A2927 RMK AO2 SNB17 P0000 FZRANO
PAMD 231751Z AUTO 23008KT 10SM OVC039 M02/M07 A2927 RMK AO2 SLP901 60000 T10171067 10000 21017 56012 FZRANO
PAMD 231651Z AUTO 22005KT 10SM FEW039 M02/M09 A2929 RMK AO2 SLP905 T10171089 FZRANO
PAMD 231551Z AUTO 25006KT 10SM OVC041 M01/M07 A2929 RMK AO2 UPB41E51 SLP908 P0000 T10111072 FZRANO
PAMD 231451Z AUTO 26006KT 10SM OVC037 M01/M07 A2931 RMK AO2 SLP914 60000 T10061067 56021 FZRANO